Time;durP1;ratioP1;P1;durP2;ratioP2;P2;SDS_P1;SDS_P2;PMS_P1;PMS_P2;Temp;Humidity;BMP_temperature;BMP_pressure;BME280_temperature;BME280_humidity;BME280_pressure;Samples;Min_cycle;Max_cycle;Signal;HPM_P1;HPM_P2
2023/03/27 00:01:16;;;;;;;0.57;0.55;;;;;;;5.16;64.76;100682.47;5061619;28;20060;-47
2023/03/27 00:03:43;;;;;;;0.75;0.47;;;;;;;5.13;65.25;100684.09;5062904;28;20049;-45
2023/03/27 00:06:16;;;;;;;3.47;0.70;;;;;;;5.11;64.35;100683.19;5058041;28;20052;-45
2023/03/27 00:08:45;;;;;;;1.38;0.68;;;;;;;5.14;65.20;100693.53;5058833;28;20091;-46
2023/03/27 00:11:13;;;;;;;6.88;0.77;;;;;;;5.12;65.05;100690.06;5057237;28;20076;-46
2023/03/27 00:13:40;;;;;;;2.35;0.50;;;;;;;5.13;64.20;100699.50;5065148;28;20504;-45
2023/03/27 00:16:18;;;;;;;1.67;0.90;;;;;;;5.11;64.68;100692.59;5060870;28;20063;-46
2023/03/27 00:18:45;;;;;;;1.10;1.00;;;;;;;5.10;64.42;100701.97;5072422;28;20053;-46
2023/03/27 00:21:13;;;;;;;6.65;0.90;;;;;;;5.10;64.60;100701.97;5059368;28;20123;-45
2023/03/27 00:23:42;;;;;;;1.08;0.55;;;;;;;5.10;64.59;100716.53;5060751;28;20056;-45
2023/03/27 00:26:10;;;;;;;3.42;0.57;;;;;;;5.05;64.78;100718.94;5057804;28;20072;-45
2023/03/27 00:28:38;;;;;;;1.80;0.60;;;;;;;5.04;64.29;100721.47;5059111;28;20465;-46
2023/03/27 00:31:12;;;;;;;0.73;0.43;;;;;;;5.03;64.92;100720.56;5059721;28;20062;-45
2023/03/27 00:33:40;;;;;;;3.13;0.90;;;;;;;5.04;64.50;100722.34;5056553;28;20067;-47
2023/03/27 00:36:09;;;;;;;1.67;0.52;;;;;;;5.03;64.36;100719.72;5059325;28;20055;-45
2023/03/27 00:38:38;;;;;;;2.92;1.02;;;;;;;5.03;64.23;100718.00;5061813;28;20049;-47
2023/03/27 00:41:07;;;;;;;1.90;0.52;;;;;;;5.02;64.13;100729.13;5065089;28;20052;-46
2023/03/27 00:43:42;;;;;;;3.33;0.80;;;;;;;5.01;64.69;100737.66;5071732;28;20052;-45
2023/03/27 00:48:57;;;;;;;2.35;1.75;;;;;;;4.98;63.65;100746.13;5099689;27;20420;-44
2023/03/27 00:51:26;;;;;;;3.10;1.65;;;;;;;4.98;63.86;100737.53;5046972;28;20095;-46
2023/03/27 00:53:55;;;;;;;2.97;1.83;;;;;;;4.96;64.07;100739.22;5054960;28;20132;-46
2023/03/27 00:56:23;;;;;;;2.50;1.83;;;;;;;4.96;63.71;100739.22;5055779;28;20045;-45
2023/03/27 00:58:57;;;;;;;3.58;2.22;;;;;;;4.95;64.11;100747.72;5056930;28;20060;-47
2023/03/27 01:01:26;;;;;;;4.50;1.83;;;;;;;4.94;63.90;100745.97;5054583;28;20055;-46
2023/03/27 01:03:54;;;;;;;3.10;1.67;;;;;;;4.92;63.98;100743.34;5037178;28;20060;-45
2023/03/27 01:06:22;;;;;;;2.38;1.83;;;;;;;4.91;64.45;100746.75;5035279;28;20050;-45
2023/03/27 01:08:48;;;;;;;2.15;1.90;;;;;;;4.91;64.66;100753.56;5036114;28;20167;-47
2023/03/27 01:11:41;;;;;;;2.08;1.88;;;;;;;4.88;63.78;100752.66;5037853;28;20083;-47
2023/03/27 01:14:20;;;;;;;5.28;1.70;;;;;;;4.89;63.83;100759.53;5038564;28;20064;-45
2023/03/27 01:17:16;;;;;;;1.92;1.83;;;;;;;4.87;63.86;100753.47;5043075;28;20049;-46
2023/03/27 01:22:58;;;;;;;3.40;0.77;;;;;;;4.86;64.36;100751.75;5067778;27;20401;-46
2023/03/27 01:42:06;;;;;;;2.75;0.70;;;;;;;4.81;64.25;100791.78;5060540;27;20929;-45
2023/03/27 01:50:08;;;;;;;1.35;0.70;;;;;;;4.75;64.28;100789.00;5066740;27;20750;-45
2023/03/27 01:52:40;;;;;;;1.63;0.60;;;;;;;4.73;64.33;100793.25;5030745;28;20107;-45
2023/03/27 01:55:12;;;;;;;3.05;0.60;;;;;;;4.67;64.75;100798.16;5035629;28;20560;-44
2023/03/27 01:57:48;;;;;;;4.68;0.90;;;;;;;4.69;64.51;100804.22;5035235;28;20065;-45
2023/03/27 02:00:21;;;;;;;2.60;0.93;;;;;;;4.67;64.15;100799.03;5033910;28;20045;-46
2023/03/27 02:03:02;;;;;;;2.33;0.80;;;;;;;4.66;64.64;100806.69;5039376;28;20053;-46
2023/03/27 02:08:18;;;;;;;1.60;0.73;;;;;;;4.63;64.75;100802.31;5067985;28;20196;-45
2023/03/27 02:10:51;;;;;;;2.33;1.10;;;;;;;4.61;65.00;100809.97;5042542;28;20045;-46
2023/03/27 02:13:26;;;;;;;4.47;0.75;;;;;;;4.60;64.61;100803.06;5047038;28;20057;-46
2023/03/27 02:15:57;;;;;;;1.48;0.73;;;;;;;4.59;65.16;100801.31;5056572;28;20084;-45
2023/03/27 02:18:31;;;;;;;8.05;1.13;;;;;;;4.58;64.31;100799.59;5046443;28;20072;-45
2023/03/27 02:20:57;;;;;;;2.45;0.80;;;;;;;4.55;64.91;100802.06;5045148;28;20045;-46
2023/03/27 02:23:24;;;;;;;2.72;0.80;;;;;;;4.55;65.32;100804.63;5048865;28;20460;-46
2023/03/27 02:25:53;;;;;;;2.50;0.98;;;;;;;4.52;64.78;100799.38;5048461;28;20480;-46
2023/03/27 02:37:00;;;;;;;3.30;1.23;;;;;;;4.40;65.04;100814.34;5028557;28;20421;-46
2023/03/27 02:45:57;;;;;;;1.23;0.40;;;;;;;4.21;65.09;100834.22;5031458;27;20406;-45
2023/03/27 02:48:44;;;;;;;1.85;1.23;;;;;;;4.13;65.19;100835.63;5038095;28;20046;-45
2023/03/27 02:51:21;;;;;;;1.42;0.95;;;;;;;4.08;65.77;100838.91;5018072;28;20084;-45
2023/03/27 02:53:58;;;;;;;4.97;0.45;;;;;;;4.04;65.65;100831.03;5020155;28;20735;-45
2023/03/27 02:56:28;;;;;;;1.92;0.40;;;;;;;3.98;64.98;100831.66;5020200;28;20045;-44
2023/03/27 02:59:02;;;;;;;1.58;0.68;;;;;;;3.92;65.52;100836.59;5017665;28;20140;-45
2023/03/27 03:01:31;;;;;;;1.95;0.57;;;;;;;3.87;65.78;100836.41;5018040;28;20061;-46
2023/03/27 03:04:03;;;;;;;1.95;0.77;;;;;;;3.82;65.69;100841.34;5017828;28;20042;-46
2023/03/27 03:06:30;;;;;;;3.15;0.80;;;;;;;3.78;65.53;100844.63;5035433;28;20053;-46
2023/03/27 03:09:00;;;;;;;3.08;0.75;;;;;;;3.74;65.90;100847.88;5014938;28;20045;-45
2023/03/27 03:11:28;;;;;;;3.00;0.63;;;;;;;3.70;65.80;100854.59;5009774;28;20045;-46
2023/03/27 03:13:55;;;;;;;0.95;0.40;;;;;;;3.66;65.62;100844.16;5007655;28;20074;-44
2023/03/27 03:16:22;;;;;;;0.82;0.40;;;;;;;3.63;65.70;100859.41;5017154;28;20596;-45
2023/03/27 03:18:49;;;;;;;2.70;0.63;;;;;;;3.60;66.36;100860.16;5017321;28;20135;-45
2023/03/27 03:21:16;;;;;;;2.35;0.65;;;;;;;3.58;65.52;100867.78;5017008;28;20145;-44
2023/03/27 03:23:43;;;;;;;3.03;1.38;;;;;;;3.56;65.87;100866.88;5017479;28;20069;-44
2023/03/27 03:26:25;;;;;;;4.47;0.70;;;;;;;3.54;65.96;100871.03;5013233;28;20046;-45
2023/03/27 03:28:52;;;;;;;4.45;0.55;;;;;;;3.52;65.34;100870.13;5002006;28;20077;-46
2023/03/27 03:31:43;;;;;;;1.13;0.77;;;;;;;3.53;66.20;100868.41;5010716;28;20049;-44
2023/03/27 03:36:48;;;;;;;2.53;1.35;;;;;;;3.51;65.94;100876.03;5032337;28;20745;-45
2023/03/27 03:39:16;;;;;;;5.22;2.13;;;;;;;3.51;66.49;100876.03;4981639;28;20403;-44
2023/03/27 03:41:43;;;;;;;3.42;1.48;;;;;;;3.53;66.05;100882.13;4978463;28;20667;-45
2023/03/27 03:44:09;;;;;;;3.90;1.85;;;;;;;3.52;66.28;100882.94;4989034;28;20050;-46
2023/03/27 03:46:37;;;;;;;3.22;1.60;;;;;;;3.52;66.65;100882.94;4998820;28;20566;-45
2023/03/27 03:49:04;;;;;;;1.75;1.52;;;;;;;3.52;65.91;100882.03;4999738;28;20054;-45
2023/03/27 03:51:31;;;;;;;2.15;1.45;;;;;;;3.50;65.72;100888.78;4999495;28;20042;-45
2023/03/27 03:53:58;;;;;;;3.30;1.88;;;;;;;3.47;66.18;100894.66;5003011;28;20605;-45
2023/03/27 03:56:26;;;;;;;2.40;1.80;;;;;;;3.44;65.88;100891.97;5000376;28;20139;-45
2023/03/27 03:58:53;;;;;;;6.88;1.75;;;;;;;3.42;65.71;100891.94;5000256;28;20818;-44
2023/03/27 04:01:20;;;;;;;7.00;2.13;;;;;;;3.39;66.63;100893.47;4999071;28;20077;-44
2023/03/27 04:03:47;;;;;;;1.88;1.77;;;;;;;3.33;66.38;100897.56;5000906;28;20105;-46
2023/03/27 04:06:16;;;;;;;5.15;2.65;;;;;;;3.30;65.93;100897.44;4984025;28;20039;-44
2023/03/27 04:08:46;;;;;;;4.07;2.05;;;;;;;3.24;66.33;100904.84;5004064;28;20050;-46
2023/03/27 04:11:12;;;;;;;2.72;2.53;;;;;;;3.20;65.85;100900.41;4979410;28;20133;-45
2023/03/27 04:13:39;;;;;;;4.38;1.60;;;;;;;3.15;66.32;100902.81;4980487;28;20109;-45
2023/03/27 04:16:06;;;;;;;5.53;2.08;;;;;;;3.13;66.25;100906.09;4979365;28;20089;-45
2023/03/27 04:18:34;;;;;;;2.85;1.75;;;;;;;3.12;66.02;100912.03;4972810;28;20047;-44
2023/03/27 04:21:01;;;;;;;3.75;1.75;;;;;;;3.10;65.77;100916.22;4979185;28;20047;-44
2023/03/27 04:23:31;;;;;;;2.33;1.95;;;;;;;3.08;66.69;100911.03;4979149;28;20050;-44
2023/03/27 04:25:59;;;;;;;3.58;1.35;;;;;;;3.07;66.68;100920.38;4981507;28;20124;-44
2023/03/27 04:28:29;;;;;;;1.52;1.15;;;;;;;3.07;65.94;100919.50;4993003;28;20129;-46
2023/03/27 04:30:56;;;;;;;3.72;1.60;;;;;;;3.05;65.86;100916.91;4993791;28;20054;-44
2023/03/27 04:33:24;;;;;;;2.90;2.65;;;;;;;3.04;66.52;100915.13;4972172;28;20125;-45
2023/03/27 04:35:56;;;;;;;2.70;2.30;;;;;;;3.04;66.75;100915.13;4972428;28;20053;-45
2023/03/27 04:38:35;;;;;;;;;;;;;;;2.98;66.13;100919.13;4978311;28;20046;-45
2023/03/27 04:41:03;;;;;;;5.53;2.15;;;;;;;3.00;66.27;100918.38;4978588;28;19933;-45
2023/03/27 04:43:29;;;;;;;2.67;2.03;;;;;;;2.99;66.77;100921.75;4979892;28;20070;-44
2023/03/27 04:45:56;;;;;;;3.47;2.10;;;;;;;2.97;66.32;100923.34;4975690;28;20125;-45
2023/03/27 04:48:22;;;;;;;2.70;2.00;;;;;;;2.94;66.91;100923.25;4979208;28;20070;-44
2023/03/27 04:50:49;;;;;;;3.13;1.85;;;;;;;2.92;67.16;100923.19;4986851;28;20089;-44
2023/03/27 04:53:19;;;;;;;2.60;2.22;;;;;;;2.89;66.39;100927.28;4984785;28;20502;-44
2023/03/27 04:55:49;;;;;;;3.55;2.00;;;;;;;2.85;66.51;100921.16;4979609;28;20125;-45
2023/03/27 04:58:17;;;;;;;4.68;2.45;;;;;;;2.82;66.37;100929.59;4963108;28;20057;-45
2023/03/27 05:00:49;;;;;;;3.28;1.75;;;;;;;2.80;66.54;100920.97;4980020;28;20439;-45
2023/03/27 05:03:19;;;;;;;2.65;1.65;;;;;;;2.76;66.51;100919.06;4980988;28;20138;-44
2023/03/27 05:05:48;;;;;;;3.92;1.85;;;;;;;2.75;66.33;100927.56;4966429;28;20055;-44
2023/03/27 05:08:15;;;;;;;4.78;1.95;;;;;;;2.71;67.19;100930.81;4965623;28;20467;-44
2023/03/27 05:10:43;;;;;;;1.67;1.35;;;;;;;2.69;67.11;100933.28;4966154;28;20090;-44
2023/03/27 05:13:10;;;;;;;8.77;1.77;;;;;;;2.67;67.46;100934.91;4961985;28;20051;-44
2023/03/27 05:15:37;;;;;;;1.90;1.73;;;;;;;2.67;67.09;100939.16;4959306;28;20058;-44
2023/03/27 05:18:05;;;;;;;4.22;2.13;;;;;;;2.65;67.06;100927.97;4975836;28;20053;-44
2023/03/27 05:20:33;;;;;;;2.40;1.85;;;;;;;2.66;67.32;100937.38;4979877;28;20042;-46
2023/03/27 05:23:00;;;;;;;2.33;1.98;;;;;;;2.67;66.60;100944.28;4978757;28;20177;-44
2023/03/27 05:25:27;;;;;;;1.52;1.42;;;;;;;2.67;67.46;100945.13;4998746;28;20089;-44
2023/03/27 05:27:54;;;;;;;3.83;1.95;;;;;;;2.67;66.59;100946.84;4979447;28;20042;-44
2023/03/27 05:30:23;;;;;;;1.80;1.55;;;;;;;2.66;67.65;100958.72;4977385;28;20106;-44
2023/03/27 05:32:51;;;;;;;4.22;1.85;;;;;;;2.63;67.39;100948.34;4981302;28;20046;-45
2023/03/27 05:35:21;;;;;;;3.40;2.05;;;;;;;2.62;67.41;100953.41;4984610;28;20061;-45
2023/03/27 05:37:49;;;;;;;3.78;2.15;;;;;;;2.61;66.86;100954.22;4975914;28;20062;-44
2023/03/27 05:40:21;;;;;;;5.25;2.40;;;;;;;2.57;67.18;100956.63;4983160;28;20086;-45
2023/03/27 05:42:49;;;;;;;4.55;2.22;;;;;;;2.56;67.36;100954.00;4986359;28;20050;-47
2023/03/27 05:45:16;;;;;;;8.35;2.58;;;;;;;2.54;67.51;100958.19;4985020;28;20053;-44
2023/03/27 05:47:49;;;;;;;2.03;1.77;;;;;;;2.53;66.57;100962.41;4985677;28;20116;-45
2023/03/27 05:50:18;;;;;;;3.97;2.05;;;;;;;2.50;67.99;100962.28;4986180;28;20046;-45
2023/03/27 05:52:45;;;;;;;5.65;2.13;;;;;;;2.49;66.82;100965.66;4987480;28;20046;-44
2023/03/27 05:55:13;;;;;;;2.97;2.13;;;;;;;2.49;67.30;100981.00;4984157;28;20082;-45
2023/03/27 05:57:40;;;;;;;2.53;2.28;;;;;;;2.48;67.05;100984.38;4984105;28;20057;-44
2023/03/27 06:00:10;;;;;;;9.00;2.72;;;;;;;2.48;67.26;100978.38;4983140;28;20584;-44
2023/03/27 06:02:38;;;;;;;4.75;2.40;;;;;;;2.49;67.84;100990.34;4981123;28;20116;-44
2023/03/27 06:05:09;;;;;;;2.55;2.35;;;;;;;2.49;66.62;100991.22;4985759;28;20042;-45
2023/03/27 06:07:37;;;;;;;5.05;2.53;;;;;;;2.49;68.21;100986.09;4979558;28;20078;-45
2023/03/27 06:10:10;;;;;;;2.85;2.40;;;;;;;2.49;66.80;100975.88;4978662;28;20074;-45
2023/03/27 06:12:40;;;;;;;6.70;1.98;;;;;;;2.47;66.93;100982.63;4984366;28;20070;-45
2023/03/27 06:15:08;;;;;;;2.17;1.83;;;;;;;2.48;68.03;100981.81;4975375;28;20046;-45
2023/03/27 06:17:38;;;;;;;5.43;1.70;;;;;;;2.48;68.20;100979.25;4977258;28;20864;-44
2023/03/27 06:20:11;;;;;;;2.53;0.82;;;;;;;2.49;67.18;100975.00;4981545;28;20553;-44
2023/03/27 06:22:43;;;;;;;8.93;2.42;;;;;;;2.48;67.75;100989.47;4975140;28;20410;-43
2023/03/27 06:25:10;;;;;;;8.13;3.05;;;;;;;2.45;66.69;100994.44;4976428;28;20057;-47
2023/03/27 06:27:36;;;;;;;6.30;2.35;;;;;;;2.47;67.00;101002.19;4976222;28;20109;-44
2023/03/27 06:30:04;;;;;;;4.38;2.55;;;;;;;2.48;68.20;101004.81;4974922;28;20417;-44
2023/03/27 06:32:31;;;;;;;20.20;7.95;;;;;;;2.51;67.55;101010.09;4979505;28;20085;-46
2023/03/27 06:34:58;;;;;;;29.05;11.30;;;;;;;2.53;66.62;101017.84;4983421;28;20486;-45
2023/03/27 06:37:24;;;;;;;20.38;9.52;;;;;;;2.55;67.39;101005.97;4977378;28;20101;-46
2023/03/27 06:39:51;;;;;;;21.92;9.30;;;;;;;2.56;67.19;101007.72;4975252;28;20070;-45
2023/03/27 06:42:17;;;;;;;19.10;7.93;;;;;;;2.61;67.91;101010.50;4977090;28;20093;-45
2023/03/27 06:44:44;;;;;;;18.02;5.72;;;;;;;2.63;67.51;101014.00;4983047;28;20100;-46
2023/03/27 06:47:11;;;;;;;16.33;3.88;;;;;;;2.67;67.15;101023.56;4978876;28;20058;-46
2023/03/27 06:49:38;;;;;;;7.10;3.90;;;;;;;2.74;67.25;101025.59;4985241;28;20334;-45
2023/03/27 06:52:04;;;;;;;7.38;4.85;;;;;;;2.80;66.88;101027.53;4976859;28;20475;-46
2023/03/27 06:54:31;;;;;;;7.05;3.63;;;;;;;2.88;67.55;101030.44;4976813;28;20105;-44
2023/03/27 06:57:00;;;;;;;5.70;3.50;;;;;;;2.95;67.09;101017.13;4982488;28;20097;-45
2023/03/27 06:59:26;;;;;;;15.10;4.60;;;;;;;3.06;67.50;101021.03;4979662;28;20093;-45
2023/03/27 07:01:53;;;;;;;14.57;4.72;;;;;;;3.16;67.91;101021.41;4983668;28;20070;-46
2023/03/27 07:04:20;;;;;;;6.30;3.63;;;;;;;3.26;67.76;101027.81;4984331;28;20058;-46
2023/03/27 07:06:47;;;;;;;9.35;4.93;;;;;;;3.33;67.22;101029.84;4981079;28;20070;-46
2023/03/27 07:09:15;;;;;;;13.45;4.03;;;;;;;3.39;67.46;101029.22;4980618;28;20052;-45
2023/03/27 07:11:41;;;;;;;6.93;4.13;;;;;;;3.45;66.93;101026.94;4981296;28;20104;-46
2023/03/27 07:14:08;;;;;;;5.97;2.58;;;;;;;3.55;66.83;101041.84;4979501;28;20097;-45
2023/03/27 07:16:35;;;;;;;6.82;1.98;;;;;;;3.65;67.48;101035.44;4983005;28;20474;-44
2023/03/27 07:19:01;;;;;;;8.50;2.58;;;;;;;3.81;67.06;101034.38;4982094;28;20054;-44
2023/03/27 07:21:28;;;;;;;6.03;2.47;;;;;;;4.40;67.04;101046.09;4979974;28;20138;-45
2023/03/27 07:23:55;;;;;;;4.47;2.50;;;;;;;5.04;66.91;101048.44;4980769;28;20046;-46
2023/03/27 07:26:21;;;;;;;4.85;2.50;;;;;;;5.98;66.66;101064.47;4980934;28;20614;-45
2023/03/27 07:28:50;;;;;;;14.07;2.72;;;;;;;6.82;66.15;101055.03;4976456;28;20050;-46
2023/03/27 07:31:17;;;;;;;3.80;2.58;;;;;;;7.35;64.29;101052.16;4978964;28;20182;-45
2023/03/27 07:33:47;;;;;;;3.55;2.55;;;;;;;8.04;63.68;101065.06;4979193;28;20058;-45
2023/03/27 07:36:15;;;;;;;3.78;2.95;;;;;;;8.35;62.09;101061.50;4981120;28;20696;-46
2023/03/27 07:38:41;;;;;;;2.97;1.98;;;;;;;8.56;61.38;101059.41;4981675;28;20050;-46
2023/03/27 07:41:08;;;;;;;4.30;2.25;;;;;;;9.06;62.10;101063.00;4981774;28;20050;-45
2023/03/27 07:43:34;;;;;;;6.70;3.03;;;;;;;9.25;60.64;101067.69;4980933;28;20663;-47
2023/03/27 07:46:02;;;;;;;4.90;2.35;;;;;;;9.32;60.25;101073.84;4984662;28;20663;-46
2023/03/27 07:48:29;;;;;;;4.22;1.95;;;;;;;9.42;60.22;101080.06;4984778;28;20058;-45
2023/03/27 07:50:58;;;;;;;4.55;3.13;;;;;;;9.50;59.82;101078.47;4983858;28;20133;-45
2023/03/27 07:53:40;;;;;;;3.28;2.13;;;;;;;9.57;59.56;101084.66;4984952;28;20549;-45
2023/03/27 07:56:07;;;;;;;7.85;2.42;;;;;;;9.54;59.59;101089.78;4985630;28;20280;-45
2023/03/27 07:58:34;;;;;;;3.63;2.00;;;;;;;9.56;59.45;101084.63;4978741;28;20499;-45
2023/03/27 08:01:01;;;;;;;7.78;2.65;;;;;;;9.44;59.50;101088.72;4986095;28;20059;-47
2023/03/27 08:03:29;;;;;;;4.28;1.80;;;;;;;9.23;58.88;101100.38;4975983;28;20049;-46
2023/03/27 08:05:58;;;;;;;4.32;2.47;;;;;;;9.06;59.11;101094.00;4982708;28;20046;-46
2023/03/27 08:08:26;;;;;;;5.38;2.47;;;;;;;8.90;59.78;101096.28;4979788;28;20050;-46
2023/03/27 08:10:55;;;;;;;5.50;2.05;;;;;;;8.73;59.09;101094.22;4982688;28;20181;-44
2023/03/27 08:13:22;;;;;;;7.20;2.60;;;;;;;8.56;59.55;101105.88;4983096;28;20138;-45
2023/03/27 08:15:49;;;;;;;5.30;2.15;;;;;;;8.43;59.92;101105.56;4976951;28;20564;-46
2023/03/27 08:18:16;;;;;;;3.10;2.30;;;;;;;8.38;59.89;101107.19;4982952;28;20133;-44
2023/03/27 08:20:44;;;;;;;9.63;2.13;;;;;;;8.36;59.99;101111.41;4971605;28;20058;-43
2023/03/27 08:23:11;;;;;;;4.15;2.88;;;;;;;8.35;60.02;101101.94;4965111;28;20562;-45
2023/03/27 08:25:37;;;;;;;3.00;1.90;;;;;;;8.37;60.52;101105.41;4967028;28;20062;-44
2023/03/27 08:28:04;;;;;;;2.97;2.03;;;;;;;8.37;60.63;101100.25;4969679;28;20124;-44
2023/03/27 08:30:30;;;;;;;4.60;2.30;;;;;;;8.35;60.17;101102.78;4968514;28;20090;-45
2023/03/27 08:32:58;;;;;;;4.68;0.75;;;;;;;8.29;60.29;101099.19;4967586;28;20623;-44
2023/03/27 08:35:25;;;;;;;3.38;2.17;;;;;;;8.28;59.90;101107.78;4960250;28;20546;-45
2023/03/27 08:37:52;;;;;;;3.88;2.55;;;;;;;8.33;59.80;101108.75;4967360;28;20684;-45
2023/03/27 08:40:25;;;;;;;3.42;1.83;;;;;;;8.40;60.24;101110.66;4966113;28;20046;-43
2023/03/27 08:42:57;;;;;;;4.60;2.60;;;;;;;8.45;59.57;101114.19;4964405;28;20498;-44
2023/03/27 08:45:28;;;;;;;2.70;2.03;;;;;;;8.52;59.29;101110.06;4959856;28;20078;-45
2023/03/27 08:48:03;;;;;;;5.65;1.95;;;;;;;8.61;59.95;101120.63;4960341;28;20117;-44
2023/03/27 08:50:37;;;;;;;2.65;2.15;;;;;;;8.72;59.78;101118.28;4962372;28;20059;-45
2023/03/27 08:53:10;;;;;;;3.95;2.05;;;;;;;8.82;59.36;101126.25;4957100;28;20064;-44
2023/03/27 08:55:42;;;;;;;10.35;3.53;;;;;;;8.89;59.31;101120.38;4958429;28;20054;-44
2023/03/27 08:58:16;;;;;;;5.93;2.00;;;;;;;8.94;59.35;101118.75;4956834;28;20087;-45
2023/03/27 09:00:46;;;;;;;8.23;2.33;;;;;;;9.06;59.63;101120.75;4957957;28;20496;-45
2023/03/27 09:03:21;;;;;;;3.70;2.55;;;;;;;9.22;59.12;101132.25;4975697;28;20128;-45
2023/03/27 09:06:15;;;;;;;7.28;2.10;;;;;;;9.26;58.42;101121.13;4981796;28;20047;-45
2023/03/27 09:08:53;;;;;;;4.25;1.92;;;;;;;9.36;58.16;101123.91;4984377;28;20054;-45
2023/03/27 09:14:03;;;;;;;4.80;0.65;;;;;;;9.59;58.50;101126.06;5027019;27;20404;-47
2023/03/27 09:19:49;;;;;;;5.57;1.13;;;;;;;9.77;55.72;101128.97;5040870;28;20405;-47
2023/03/27 09:22:28;;;;;;;4.70;1.23;;;;;;;9.75;56.73;101130.69;4991246;28;20461;-46
2023/03/27 09:24:59;;;;;;;2.90;1.58;;;;;;;9.74;55.79;101128.94;5002208;28;20077;-47
2023/03/27 09:27:31;;;;;;;3.85;1.73;;;;;;;9.74;56.54;101134.13;4999946;28;20069;-45
2023/03/27 09:32:34;;;;;;;2.08;0.88;;;;;;;9.79;56.16;101130.75;5027631;27;21840;-47
2023/03/27 09:35:03;;;;;;;0.90;0.40;;;;;;;9.83;56.50;101142.88;5007073;28;20050;-47
2023/03/27 09:37:30;;;;;;;7.50;1.08;;;;;;;9.88;56.52;101146.41;5003724;28;20057;-48
2023/03/27 09:39:59;;;;;;;5.70;0.38;;;;;;;9.88;56.55;101151.59;5001937;28;20077;-47
2023/03/27 09:42:32;;;;;;;5.75;1.15;;;;;;;9.86;55.88;101148.13;5018255;28;20141;-47
2023/03/27 09:45:02;;;;;;;6.88;1.13;;;;;;;9.95;55.63;101148.28;5006018;28;20053;-45
2023/03/27 09:47:36;;;;;;;5.90;0.88;;;;;;;10.13;55.95;101147.72;5004513;28;20407;-47
2023/03/27 09:53:18;;;;;;;2.25;0.98;;;;;;;10.46;55.07;101143.09;4994202;28;20411;-47
2023/03/27 09:55:51;;;;;;;7.03;0.80;;;;;;;10.77;56.05;101146.13;4962427;28;20431;-49
2023/03/27 10:01:29;;;;;;;4.40;0.68;;;;;;;11.25;54.05;101145.88;5099871;27;20397;-48
2023/03/27 10:03:58;;;;;;;4.78;0.70;;;;;;;11.51;54.39;101145.31;5063206;28;20060;-48
2023/03/27 10:09:33;;;;;;;7.28;1.98;;;;;;;12.18;52.79;101147.69;5016016;28;20421;-46
2023/03/27 10:14:42;;;;;;;2.90;1.08;;;;;;;12.25;52.55;101149.50;5056647;27;20409;-46
2023/03/27 10:20:07;;;;;;;2.88;1.42;;;;;;;12.22;51.33;101146.88;5051660;27;20403;-46
2023/03/27 10:22:38;;;;;;;1.77;0.43;;;;;;;12.28;51.98;101152.13;5016478;28;20104;-48
2023/03/27 10:25:16;;;;;;;2.45;1.02;;;;;;;12.32;51.63;101151.28;5030544;28;20347;-46
2023/03/27 10:27:43;;;;;;;4.63;0.95;;;;;;;12.40;52.44;101153.06;4999618;28;20045;-45
2023/03/27 10:30:28;;;;;;;2.83;1.13;;;;;;;12.56;52.15;101152.31;5019302;28;20096;-49
2023/03/27 10:32:55;;;;;;;5.38;1.05;;;;;;;12.66;52.42;101155.84;5014930;28;20135;-46
2023/03/27 10:35:25;;;;;;;3.05;0.85;;;;;;;12.75;51.49;101148.97;5016279;28;20058;-46
2023/03/27 10:37:53;;;;;;;2.35;0.93;;;;;;;12.82;50.88;101156.81;5028312;28;20050;-47
2023/03/27 10:40:24;;;;;;;5.40;1.23;;;;;;;12.91;51.52;101149.94;5014424;28;20073;-46
2023/03/27 10:42:55;;;;;;;3.25;1.33;;;;;;;12.98;50.86;101156.91;4996706;28;20054;-47
2023/03/27 10:45:23;;;;;;;8.10;1.15;;;;;;;12.84;50.29;101160.28;5014630;28;20072;-48
2023/03/27 10:47:53;;;;;;;3.63;0.57;;;;;;;12.90;49.60;101148.19;5018511;28;20096;-46
2023/03/27 10:50:30;;;;;;;4.13;1.17;;;;;;;12.90;49.96;101158.59;5009480;28;20082;-46
2023/03/27 11:01:23;;;;;;;4.15;1.67;;;;;;;12.88;47.84;101156.00;5076992;27;21053;-47
2023/03/27 11:03:56;;;;;;;4.88;2.33;;;;;;;12.87;48.07;101161.19;4999960;28;20065;-46
2023/03/27 11:06:30;;;;;;;6.07;2.20;;;;;;;12.89;48.57;101147.31;4985249;28;20514;-46
2023/03/27 11:11:38;;;;;;;2.88;0.93;;;;;;;12.89;48.14;101151.63;5037046;27;20414;-46
2023/03/27 11:14:15;;;;;;;3.17;0.93;;;;;;;12.87;48.14;101149.03;5007813;28;20301;-46
2023/03/27 11:16:48;;;;;;;6.03;1.67;;;;;;;12.84;49.17;101155.09;5006850;28;20069;-46
2023/03/27 11:22:01;;;;;;;4.82;1.33;;;;;;;13.03;49.22;101149.97;5056952;27;20385;-46
2023/03/27 11:24:37;;;;;;;4.93;1.10;;;;;;;13.06;48.35;101155.22;5003475;27;20061;-46
2023/03/27 11:29:49;;;;;;;6.82;2.08;;;;;;;12.90;47.54;101158.59;5046510;27;20963;-45
2023/03/27 11:32:32;;;;;;;4.50;1.58;;;;;;;12.74;48.55;101155.91;5038719;28;20075;-48
2023/03/27 11:35:09;;;;;;;7.90;2.15;;;;;;;12.57;49.06;101158.41;5034120;28;20124;-46
2023/03/27 11:40:46;;;;;;;4.53;2.33;;;;;;;12.65;47.66;101158.44;5092734;27;20390;-46
2023/03/27 11:43:15;;;;;;;5.40;2.53;;;;;;;12.73;48.70;101156.75;5092973;28;20178;-46
2023/03/27 11:45:52;;;;;;;6.85;2.75;;;;;;;12.75;48.39;101155.03;5082308;28;20739;-46
2023/03/27 11:51:53;;;;;;;5.45;1.52;;;;;;;12.61;47.60;101160.16;5017394;28;20398;-48
2023/03/27 11:54:29;;;;;;;;;;;;;;;12.68;49.07;101161.06;4978559;28;20050;-47
2023/03/27 11:57:01;;;;;;;3.58;1.58;;;;;;;12.84;48.08;101159.44;4985081;28;19976;-47
2023/03/27 12:05:28;;;;;;;8.75;2.75;;;;;;;13.06;48.45;101165.59;5040292;28;20398;-47
2023/03/27 12:08:07;;;;;;;7.72;2.72;;;;;;;13.13;48.32;101157.84;4988759;28;20074;-48
2023/03/27 12:10:37;;;;;;;6.43;3.28;;;;;;;13.17;48.30;101165.66;4999194;28;20057;-46
2023/03/27 12:13:19;;;;;;;;;;;;;;;13.01;47.80;101172.53;5001477;28;20149;-46
2023/03/27 12:24:01;;;;;;;7.95;1.45;;;;;;;13.17;47.82;101157.00;5026662;28;20402;-47
2023/03/27 12:29:33;;;;;;;5.82;1.88;;;;;;;13.05;47.83;101168.19;5052065;27;20403;-46
2023/03/27 12:32:29;;;;;;;3.28;1.75;;;;;;;13.09;47.12;101160.44;5022009;28;20171;-47
2023/03/27 12:34:59;;;;;;;;;;;;;;;13.02;47.60;101163.84;5039285;28;20057;-46
2023/03/27 12:37:33;;;;;;;4.72;1.63;;;;;;;13.05;46.82;101158.69;5031594;28;19925;-46
2023/03/27 12:40:00;;;;;;;6.72;1.83;;;;;;;12.95;47.08;101162.97;5031849;28;20056;-47
2023/03/27 12:42:41;;;;;;;3.47;1.70;;;;;;;12.92;47.17;101162.94;5051365;28;20053;-46
2023/03/27 12:50:54;;;;;;;3.90;2.13;;;;;;;13.21;48.12;101156.16;5049692;27;20833;-46
2023/03/27 12:58:53;;;;;;;5.57;3.45;;;;;;;13.24;46.69;101154.41;5023067;28;20410;-47
2023/03/27 13:04:33;;;;;;;2.30;1.17;;;;;;;13.37;45.91;101150.13;5025032;28;20971;-46
2023/03/27 13:27:12;;;;;;;3.47;2.90;;;;;;;14.38;44.62;101130.28;5043800;27;20630;-47
2023/03/27 13:29:40;;;;;;;5.47;3.08;;;;;;;14.24;45.71;101139.00;5039193;28;20044;-46
2023/03/27 13:32:29;;;;;;;4.20;3.25;;;;;;;14.16;45.56;101129.44;5036948;28;20065;-48
2023/03/27 13:37:47;;;;;;;4.13;1.30;;;;;;;14.03;43.95;101129.44;5070910;27;20392;-47
2023/03/27 13:48:56;;;;;;;3.78;1.20;;;;;;;13.45;44.54;101115.47;5021664;27;20398;-47
2023/03/27 14:05:35;;;;;;;4.55;1.15;;;;;;;13.01;45.57;101119.63;5042816;28;20394;-46
2023/03/27 14:08:15;;;;;;;3.85;1.25;;;;;;;12.97;44.47;101118.78;4997018;28;20053;-47
2023/03/27 14:18:59;;;;;;;5.10;2.53;;;;;;;12.72;45.62;101123.81;5074509;27;20764;-47
2023/03/27 14:21:28;;;;;;;8.50;1.80;;;;;;;12.69;45.40;101118.59;5006538;28;20072;-47
2023/03/27 14:24:19;;;;;;;4.00;2.22;;;;;;;12.74;46.34;101122.13;5014117;28;20605;-46
2023/03/27 14:26:47;;;;;;;4.15;2.05;;;;;;;12.96;46.68;101117.00;5018544;28;20049;-46
2023/03/27 14:29:15;;;;;;;2.97;1.85;;;;;;;13.15;45.43;101114.50;5013847;28;20076;-46
2023/03/27 14:31:43;;;;;;;4.78;1.65;;;;;;;13.25;45.42;101121.47;5025850;28;20046;-47
2023/03/27 14:36:48;;;;;;;5.68;2.60;;;;;;;13.23;45.43;101125.78;5041602;28;20401;-45
2023/03/27 14:39:19;;;;;;;4.82;2.75;;;;;;;13.14;45.59;101116.22;4982701;28;20054;-45
2023/03/27 14:41:53;;;;;;;4.47;3.53;;;;;;;13.01;45.71;101110.13;4977990;28;21607;-46
2023/03/27 14:44:20;;;;;;;5.68;2.88;;;;;;;12.94;46.41;101116.16;4975884;28;20050;-47
2023/03/27 14:46:48;;;;;;;3.60;1.30;;;;;;;12.91;45.86;101113.53;4978364;28;20841;-47
2023/03/27 14:49:19;;;;;;;3.67;2.47;;;;;;;12.92;45.27;101112.66;4980384;28;20054;-46